sensor_id;sensor_type;location;lat;lon;timestamp;P1;durP1;ratioP1;P2;durP2;ratioP2
75071;SDS011;63651;55.728;38.022;2023-07-22T00:02:49;3.25;;;1.30;;
75071;SDS011;63651;55.728;38.022;2023-07-22T00:07:50;4.18;;;1.40;;
75071;SDS011;63651;55.728;38.022;2023-07-22T00:12:51;1.83;;;1.20;;
75071;SDS011;63651;55.728;38.022;2023-07-22T00:17:52;3.08;;;1.30;;
75071;SDS011;63651;55.728;38.022;2023-07-22T00:22:53;5.00;;;1.25;;
75071;SDS011;63651;55.728;38.022;2023-07-22T00:27:54;3.60;;;1.08;;
75071;SDS011;63651;55.728;38.022;2023-07-22T00:32:55;2.47;;;1.23;;
75071;SDS011;63651;55.728;38.022;2023-07-22T00:37:56;3.15;;;1.40;;
75071;SDS011;63651;55.728;38.022;2023-07-22T00:42:58;2.45;;;1.30;;
75071;SDS011;63651;55.728;38.022;2023-07-22T00:48:02;4.70;;;1.60;;
75071;SDS011;63651;55.728;38.022;2023-07-22T00:53:06;2.40;;;1.30;;
75071;SDS011;63651;55.728;38.022;2023-07-22T00:58:07;2.78;;;1.55;;
75071;SDS011;63651;55.728;38.022;2023-07-22T01:03:08;2.58;;;1.10;;
75071;SDS011;63651;55.728;38.022;2023-07-22T01:08:09;3.33;;;1.30;;
75071;SDS011;63651;55.728;38.022;2023-07-22T01:13:10;4.40;;;1.23;;
75071;SDS011;63651;55.728;38.022;2023-07-22T01:18:11;2.72;;;1.20;;
75071;SDS011;63651;55.728;38.022;2023-07-22T01:23:12;2.75;;;1.30;;
75071;SDS011;63651;55.728;38.022;2023-07-22T01:28:13;3.50;;;1.27;;
75071;SDS011;63651;55.728;38.022;2023-07-22T01:33:14;2.60;;;1.02;;
75071;SDS011;63651;55.728;38.022;2023-07-22T01:38:15;4.30;;;1.30;;
75071;SDS011;63651;55.728;38.022;2023-07-22T01:43:16;2.58;;;1.25;;
75071;SDS011;63651;55.728;38.022;2023-07-22T01:48:17;3.53;;;1.38;;
75071;SDS011;63651;55.728;38.022;2023-07-22T01:53:18;2.83;;;1.10;;
75071;SDS011;63651;55.728;38.022;2023-07-22T01:58:19;4.20;;;1.20;;
75071;SDS011;63651;55.728;38.022;2023-07-22T02:03:21;4.13;;;1.15;;
75071;SDS011;63651;55.728;38.022;2023-07-22T02:08:22;2.45;;;1.10;;
75071;SDS011;63651;55.728;38.022;2023-07-22T02:13:23;3.63;;;0.90;;
75071;SDS011;63651;55.728;38.022;2023-07-22T02:18:24;1.73;;;0.95;;
75071;SDS011;63651;55.728;38.022;2023-07-22T02:23:25;2.92;;;1.15;;
75071;SDS011;63651;55.728;38.022;2023-07-22T02:28:26;3.85;;;1.10;;
75071;SDS011;63651;55.728;38.022;2023-07-22T02:33:27;1.98;;;0.82;;
75071;SDS011;63651;55.728;38.022;2023-07-22T02:38:28;2.40;;;1.10;;
75071;SDS011;63651;55.728;38.022;2023-07-22T02:43:29;1.73;;;0.80;;
75071;SDS011;63651;55.728;38.022;2023-07-22T02:48:30;2.85;;;1.20;;
75071;SDS011;63651;55.728;38.022;2023-07-22T02:53:32;3.17;;;1.00;;
75071;SDS011;63651;55.728;38.022;2023-07-22T02:58:34;3.08;;;1.20;;
75071;SDS011;63651;55.728;38.022;2023-07-22T03:03:36;4.28;;;1.13;;
75071;SDS011;63651;55.728;38.022;2023-07-22T03:08:37;3.88;;;1.02;;
75071;SDS011;63651;55.728;38.022;2023-07-22T03:13:38;4.28;;;1.10;;
75071;SDS011;63651;55.728;38.022;2023-07-22T03:18:39;3.13;;;1.40;;
75071;SDS011;63651;55.728;38.022;2023-07-22T03:23:42;3.78;;;1.23;;
75071;SDS011;63651;55.728;38.022;2023-07-22T03:28:43;2.28;;;1.10;;
75071;SDS011;63651;55.728;38.022;2023-07-22T03:33:44;1.60;;;1.13;;
75071;SDS011;63651;55.728;38.022;2023-07-22T03:38:46;3.83;;;1.30;;
75071;SDS011;63651;55.728;38.022;2023-07-22T03:43:47;2.38;;;1.25;;
75071;SDS011;63651;55.728;38.022;2023-07-22T03:48:48;2.95;;;1.10;;
75071;SDS011;63651;55.728;38.022;2023-07-22T03:53:49;3.70;;;1.20;;
75071;SDS011;63651;55.728;38.022;2023-07-22T03:58:51;4.78;;;1.70;;
75071;SDS011;63651;55.728;38.022;2023-07-22T04:03:52;3.00;;;1.10;;
75071;SDS011;63651;55.728;38.022;2023-07-22T04:08:53;2.70;;;1.20;;
75071;SDS011;63651;55.728;38.022;2023-07-22T04:13:54;4.65;;;1.08;;
75071;SDS011;63651;55.728;38.022;2023-07-22T04:18:55;2.88;;;1.15;;
75071;SDS011;63651;55.728;38.022;2023-07-22T04:23:57;4.60;;;1.10;;
75071;SDS011;63651;55.728;38.022;2023-07-22T04:28:59;2.92;;;0.77;;
75071;SDS011;63651;55.728;38.022;2023-07-22T04:34:00;3.60;;;1.23;;
75071;SDS011;63651;55.728;38.022;2023-07-22T04:39:02;2.47;;;1.00;;
75071;SDS011;63651;55.728;38.022;2023-07-22T04:44:05;2.58;;;1.10;;
75071;SDS011;63651;55.728;38.022;2023-07-22T04:49:06;1.35;;;0.98;;
75071;SDS011;63651;55.728;38.022;2023-07-22T04:54:07;1.75;;;0.95;;
75071;SDS011;63651;55.728;38.022;2023-07-22T04:59:08;1.85;;;0.90;;
75071;SDS011;63651;55.728;38.022;2023-07-22T05:04:10;1.88;;;0.80;;
75071;SDS011;63651;55.728;38.022;2023-07-22T05:09:11;2.40;;;0.98;;
75071;SDS011;63651;55.728;38.022;2023-07-22T05:14:13;2.60;;;1.20;;
75071;SDS011;63651;55.728;38.022;2023-07-22T05:19:13;2.22;;;1.10;;
75071;SDS011;63651;55.728;38.022;2023-07-22T05:24:15;4.18;;;1.50;;
75071;SDS011;63651;55.728;38.022;2023-07-22T05:29:16;2.85;;;1.48;;
75071;SDS011;63651;55.728;38.022;2023-07-22T05:34:17;2.55;;;0.90;;
75071;SDS011;63651;55.728;38.022;2023-07-22T05:39:18;3.10;;;1.08;;
75071;SDS011;63651;55.728;38.022;2023-07-22T05:44:19;2.05;;;1.13;;
75071;SDS011;63651;55.728;38.022;2023-07-22T05:49:20;4.10;;;1.25;;
75071;SDS011;63651;55.728;38.022;2023-07-22T05:54:21;2.08;;;1.30;;
75071;SDS011;63651;55.728;38.022;2023-07-22T05:59:23;3.45;;;1.02;;
75071;SDS011;63651;55.728;38.022;2023-07-22T06:04:24;3.08;;;1.10;;
75071;SDS011;63651;55.728;38.022;2023-07-22T06:09:25;6.80;;;1.25;;
75071;SDS011;63651;55.728;38.022;2023-07-22T06:14:26;1.88;;;1.00;;
75071;SDS011;63651;55.728;38.022;2023-07-22T06:19:28;6.72;;;1.08;;
75071;SDS011;63651;55.728;38.022;2023-07-22T06:24:29;3.90;;;1.02;;
75071;SDS011;63651;55.728;38.022;2023-07-22T06:29:30;3.22;;;1.00;;
75071;SDS011;63651;55.728;38.022;2023-07-22T06:34:31;4.50;;;0.93;;
75071;SDS011;63651;55.728;38.022;2023-07-22T06:39:32;3.40;;;1.08;;
75071;SDS011;63651;55.728;38.022;2023-07-22T06:44:33;7.38;;;1.02;;
75071;SDS011;63651;55.728;38.022;2023-07-22T06:49:34;6.18;;;0.98;;
75071;SDS011;63651;55.728;38.022;2023-07-22T06:54:35;4.65;;;1.40;;
75071;SDS011;63651;55.728;38.022;2023-07-22T06:59:36;4.65;;;0.90;;
75071;SDS011;63651;55.728;38.022;2023-07-22T07:04:37;4.00;;;1.35;;
75071;SDS011;63651;55.728;38.022;2023-07-22T07:09:38;4.95;;;1.27;;
75071;SDS011;63651;55.728;38.022;2023-07-22T07:14:40;7.57;;;1.13;;
75071;SDS011;63651;55.728;38.022;2023-07-22T07:19:41;8.98;;;1.30;;
75071;SDS011;63651;55.728;38.022;2023-07-22T07:24:42;6.30;;;1.67;;
75071;SDS011;63651;55.728;38.022;2023-07-22T07:29:44;3.90;;;1.40;;
75071;SDS011;63651;55.728;38.022;2023-07-22T07:34:45;4.32;;;1.35;;
75071;SDS011;63651;55.728;38.022;2023-07-22T07:39:46;5.07;;;1.73;;
75071;SDS011;63651;55.728;38.022;2023-07-22T07:44:47;3.63;;;1.27;;
75071;SDS011;63651;55.728;38.022;2023-07-22T07:49:48;3.42;;;1.40;;
75071;SDS011;63651;55.728;38.022;2023-07-22T07:54:49;4.32;;;1.50;;
75071;SDS011;63651;55.728;38.022;2023-07-22T07:59:50;5.32;;;1.50;;
75071;SDS011;63651;55.728;38.022;2023-07-22T08:04:51;3.42;;;1.15;;
75071;SDS011;63651;55.728;38.022;2023-07-22T08:09:52;2.25;;;1.10;;
75071;SDS011;63651;55.728;38.022;2023-07-22T08:14:53;2.42;;;1.35;;
75071;SDS011;63651;55.728;38.022;2023-07-22T08:19:54;2.65;;;1.20;;
75071;SDS011;63651;55.728;38.022;2023-07-22T08:24:55;2.45;;;1.13;;
75071;SDS011;63651;55.728;38.022;2023-07-22T08:29:57;3.47;;;1.00;;
75071;SDS011;63651;55.728;38.022;2023-07-22T08:34:58;2.85;;;1.20;;
75071;SDS011;63651;55.728;38.022;2023-07-22T08:39:59;2.15;;;1.00;;
75071;SDS011;63651;55.728;38.022;2023-07-22T08:45:00;1.92;;;1.15;;
75071;SDS011;63651;55.728;38.022;2023-07-22T08:50:02;3.10;;;0.93;;
75071;SDS011;63651;55.728;38.022;2023-07-22T08:55:07;1.52;;;0.80;;
75071;SDS011;63651;55.728;38.022;2023-07-22T09:00:11;1.73;;;0.82;;
75071;SDS011;63651;55.728;38.022;2023-07-22T09:05:13;3.50;;;1.00;;
75071;SDS011;63651;55.728;38.022;2023-07-22T09:10:14;4.13;;;1.00;;
75071;SDS011;63651;55.728;38.022;2023-07-22T09:15:16;1.45;;;1.13;;
75071;SDS011;63651;55.728;38.022;2023-07-22T09:20:19;2.17;;;0.93;;
75071;SDS011;63651;55.728;38.022;2023-07-22T09:25:24;3.78;;;1.33;;
75071;SDS011;63651;55.728;38.022;2023-07-22T09:35:43;1.65;;;1.00;;
75071;SDS011;63651;55.728;38.022;2023-07-22T09:40:45;3.00;;;0.95;;
75071;SDS011;63651;55.728;38.022;2023-07-22T09:45:47;2.75;;;1.10;;
75071;SDS011;63651;55.728;38.022;2023-07-22T09:51:11;1.45;;;0.90;;
75071;SDS011;63651;55.728;38.022;2023-07-22T09:56:14;1.52;;;0.90;;
75071;SDS011;63651;55.728;38.022;2023-07-22T10:01:15;1.52;;;0.80;;
75071;SDS011;63651;55.728;38.022;2023-07-22T10:06:21;3.92;;;1.05;;
75071;SDS011;63651;55.728;38.022;2023-07-22T10:11:43;2.40;;;0.98;;
75071;SDS011;63651;55.728;38.022;2023-07-22T10:16:48;6.28;;;0.90;;
75071;SDS011;63651;55.728;38.022;2023-07-22T10:22:01;2.40;;;0.80;;
75071;SDS011;63651;55.728;38.022;2023-07-22T10:27:03;2.47;;;0.88;;
75071;SDS011;63651;55.728;38.022;2023-07-22T10:32:07;1.90;;;0.80;;
75071;SDS011;63651;55.728;38.022;2023-07-22T10:37:09;3.50;;;0.90;;
75071;SDS011;63651;55.728;38.022;2023-07-22T10:42:16;1.35;;;0.85;;
75071;SDS011;63651;55.728;38.022;2023-07-22T10:47:34;2.75;;;0.70;;
75071;SDS011;63651;55.728;38.022;2023-07-22T10:52:38;3.63;;;0.70;;
75071;SDS011;63651;55.728;38.022;2023-07-22T10:57:50;3.08;;;0.95;;
75071;SDS011;63651;55.728;38.022;2023-07-22T11:08:16;3.42;;;0.70;;
75071;SDS011;63651;55.728;38.022;2023-07-22T11:13:18;3.50;;;1.25;;
75071;SDS011;63651;55.728;38.022;2023-07-22T11:23:56;1.98;;;0.77;;
75071;SDS011;63651;55.728;38.022;2023-07-22T11:28:58;2.38;;;1.05;;
75071;SDS011;63651;55.728;38.022;2023-07-22T11:34:01;3.40;;;0.80;;
75071;SDS011;63651;55.728;38.022;2023-07-22T11:39:03;7.75;;;1.00;;
75071;SDS011;63651;55.728;38.022;2023-07-22T11:44:04;2.80;;;0.90;;
75071;SDS011;63651;55.728;38.022;2023-07-22T11:49:09;1.58;;;0.80;;
75071;SDS011;63651;55.728;38.022;2023-07-22T11:54:10;3.33;;;1.10;;
75071;SDS011;63651;55.728;38.022;2023-07-22T11:59:11;2.38;;;0.90;;
75071;SDS011;63651;55.728;38.022;2023-07-22T12:04:13;2.35;;;0.98;;
75071;SDS011;63651;55.728;38.022;2023-07-22T12:09:14;2.35;;;1.20;;
75071;SDS011;63651;55.728;38.022;2023-07-22T12:14:16;1.77;;;0.90;;
75071;SDS011;63651;55.728;38.022;2023-07-22T12:19:17;2.88;;;1.23;;
75071;SDS011;63651;55.728;38.022;2023-07-22T12:24:18;1.85;;;1.00;;
75071;SDS011;63651;55.728;38.022;2023-07-22T12:29:19;2.40;;;1.02;;
75071;SDS011;63651;55.728;38.022;2023-07-22T12:34:22;2.60;;;1.50;;
75071;SDS011;63651;55.728;38.022;2023-07-22T12:39:23;1.13;;;0.82;;
75071;SDS011;63651;55.728;38.022;2023-07-22T12:44:24;3.42;;;0.70;;
75071;SDS011;63651;55.728;38.022;2023-07-22T12:49:25;4.18;;;1.02;;
75071;SDS011;63651;55.728;38.022;2023-07-22T12:54:26;2.92;;;1.00;;
75071;SDS011;63651;55.728;38.022;2023-07-22T12:59:27;2.70;;;1.30;;
75071;SDS011;63651;55.728;38.022;2023-07-22T13:04:28;1.75;;;0.93;;
75071;SDS011;63651;55.728;38.022;2023-07-22T13:09:29;2.50;;;0.95;;
75071;SDS011;63651;55.728;38.022;2023-07-22T13:14:31;4.18;;;3.28;;
75071;SDS011;63651;55.728;38.022;2023-07-22T13:19:32;4.25;;;1.60;;
75071;SDS011;63651;55.728;38.022;2023-07-22T13:24:33;3.38;;;1.70;;
75071;SDS011;63651;55.728;38.022;2023-07-22T13:29:34;3.90;;;2.00;;
75071;SDS011;63651;55.728;38.022;2023-07-22T13:34:35;3.58;;;1.70;;
75071;SDS011;63651;55.728;38.022;2023-07-22T13:39:36;3.22;;;1.73;;
75071;SDS011;63651;55.728;38.022;2023-07-22T13:44:37;5.13;;;3.40;;
75071;SDS011;63651;55.728;38.022;2023-07-22T13:49:38;3.00;;;1.60;;
75071;SDS011;63651;55.728;38.022;2023-07-22T13:54:39;4.45;;;2.75;;
75071;SDS011;63651;55.728;38.022;2023-07-22T13:59:40;2.53;;;1.55;;
75071;SDS011;63651;55.728;38.022;2023-07-22T14:04:41;3.60;;;2.03;;
75071;SDS011;63651;55.728;38.022;2023-07-22T14:09:43;4.85;;;2.30;;
75071;SDS011;63651;55.728;38.022;2023-07-22T14:14:45;3.60;;;1.60;;
75071;SDS011;63651;55.728;38.022;2023-07-22T14:19:46;3.85;;;1.88;;
75071;SDS011;63651;55.728;38.022;2023-07-22T14:24:47;2.58;;;1.80;;
75071;SDS011;63651;55.728;38.022;2023-07-22T14:29:48;2.90;;;1.30;;
75071;SDS011;63651;55.728;38.022;2023-07-22T14:34:49;3.97;;;1.60;;
75071;SDS011;63651;55.728;38.022;2023-07-22T14:39:51;10.38;;;3.63;;
75071;SDS011;63651;55.728;38.022;2023-07-22T14:44:52;11.85;;;4.05;;
75071;SDS011;63651;55.728;38.022;2023-07-22T14:49:53;12.93;;;4.00;;
75071;SDS011;63651;55.728;38.022;2023-07-22T14:54:54;7.82;;;3.17;;
75071;SDS011;63651;55.728;38.022;2023-07-22T14:59:55;10.55;;;3.53;;
75071;SDS011;63651;55.728;38.022;2023-07-22T15:04:57;8.85;;;3.45;;
75071;SDS011;63651;55.728;38.022;2023-07-22T15:09:58;10.07;;;3.67;;
75071;SDS011;63651;55.728;38.022;2023-07-22T15:14:59;6.07;;;2.95;;
75071;SDS011;63651;55.728;38.022;2023-07-22T15:20:01;7.60;;;2.65;;
75071;SDS011;63651;55.728;38.022;2023-07-22T15:25:03;7.15;;;2.40;;
75071;SDS011;63651;55.728;38.022;2023-07-22T15:30:05;6.18;;;2.13;;
75071;SDS011;63651;55.728;38.022;2023-07-22T15:35:07;8.38;;;2.03;;
75071;SDS011;63651;55.728;38.022;2023-07-22T15:40:09;4.32;;;2.03;;
75071;SDS011;63651;55.728;38.022;2023-07-22T15:45:11;4.75;;;1.83;;
75071;SDS011;63651;55.728;38.022;2023-07-22T15:50:12;3.33;;;1.23;;
75071;SDS011;63651;55.728;38.022;2023-07-22T15:55:13;3.28;;;2.10;;
75071;SDS011;63651;55.728;38.022;2023-07-22T16:00:14;4.05;;;1.50;;
75071;SDS011;63651;55.728;38.022;2023-07-22T16:05:15;1.60;;;1.13;;
75071;SDS011;63651;55.728;38.022;2023-07-22T16:10:16;2.63;;;1.77;;
75071;SDS011;63651;55.728;38.022;2023-07-22T16:15:17;2.90;;;1.30;;
75071;SDS011;63651;55.728;38.022;2023-07-22T16:20:19;2.63;;;1.70;;
75071;SDS011;63651;55.728;38.022;2023-07-22T16:25:21;2.38;;;1.67;;
75071;SDS011;63651;55.728;38.022;2023-07-22T16:30:22;3.50;;;1.73;;
75071;SDS011;63651;55.728;38.022;2023-07-22T16:35:23;3.63;;;1.73;;
75071;SDS011;63651;55.728;38.022;2023-07-22T16:40:24;3.10;;;1.70;;
75071;SDS011;63651;55.728;38.022;2023-07-22T16:45:25;4.43;;;1.77;;
75071;SDS011;63651;55.728;38.022;2023-07-22T16:50:26;3.55;;;1.58;;
75071;SDS011;63651;55.728;38.022;2023-07-22T16:55:27;4.70;;;1.63;;
75071;SDS011;63651;55.728;38.022;2023-07-22T17:00:29;2.40;;;1.55;;
75071;SDS011;63651;55.728;38.022;2023-07-22T17:05:31;3.20;;;1.77;;
75071;SDS011;63651;55.728;38.022;2023-07-22T17:10:32;2.75;;;1.58;;
75071;SDS011;63651;55.728;38.022;2023-07-22T17:15:33;3.28;;;1.75;;
75071;SDS011;63651;55.728;38.022;2023-07-22T17:20:34;4.65;;;2.03;;
75071;SDS011;63651;55.728;38.022;2023-07-22T17:25:35;4.50;;;2.08;;
75071;SDS011;63651;55.728;38.022;2023-07-22T17:30:36;4.38;;;1.85;;
75071;SDS011;63651;55.728;38.022;2023-07-22T17:35:37;5.45;;;2.30;;
75071;SDS011;63651;55.728;38.022;2023-07-22T17:40:39;6.40;;;3.33;;
75071;SDS011;63651;55.728;38.022;2023-07-22T17:45:41;4.72;;;2.60;;
75071;SDS011;63651;55.728;38.022;2023-07-22T17:50:42;7.45;;;2.70;;
75071;SDS011;63651;55.728;38.022;2023-07-22T17:55:44;9.52;;;3.53;;
75071;SDS011;63651;55.728;38.022;2023-07-22T18:00:45;6.25;;;3.47;;
75071;SDS011;63651;55.728;38.022;2023-07-22T18:05:46;4.28;;;2.88;;
75071;SDS011;63651;55.728;38.022;2023-07-22T18:10:51;8.07;;;3.97;;
75071;SDS011;63651;55.728;38.022;2023-07-22T18:15:52;6.38;;;3.53;;
75071;SDS011;63651;55.728;38.022;2023-07-22T18:20:53;8.10;;;4.15;;
75071;SDS011;63651;55.728;38.022;2023-07-22T18:25:54;6.22;;;3.38;;
75071;SDS011;63651;55.728;38.022;2023-07-22T18:30:55;6.10;;;3.70;;
75071;SDS011;63651;55.728;38.022;2023-07-22T18:35:56;8.10;;;3.60;;
75071;SDS011;63651;55.728;38.022;2023-07-22T18:40:58;5.28;;;3.30;;
75071;SDS011;63651;55.728;38.022;2023-07-22T18:46:00;8.73;;;4.00;;
75071;SDS011;63651;55.728;38.022;2023-07-22T18:51:01;6.03;;;3.60;;
75071;SDS011;63651;55.728;38.022;2023-07-22T18:56:02;7.93;;;3.13;;
75071;SDS011;63651;55.728;38.022;2023-07-22T19:01:03;6.43;;;4.20;;
75071;SDS011;63651;55.728;38.022;2023-07-22T19:06:04;6.55;;;4.05;;
75071;SDS011;63651;55.728;38.022;2023-07-22T19:11:05;5.97;;;4.22;;
75071;SDS011;63651;55.728;38.022;2023-07-22T19:16:09;7.00;;;4.90;;
75071;SDS011;63651;55.728;38.022;2023-07-22T19:21:10;7.70;;;5.82;;
75071;SDS011;63651;55.728;38.022;2023-07-22T19:26:11;15.32;;;6.82;;
75071;SDS011;63651;55.728;38.022;2023-07-22T19:31:12;8.32;;;6.63;;
75071;SDS011;63651;55.728;38.022;2023-07-22T19:36:13;10.57;;;7.18;;
75071;SDS011;63651;55.728;38.022;2023-07-22T19:41:14;9.18;;;6.15;;
75071;SDS011;63651;55.728;38.022;2023-07-22T19:46:16;9.95;;;7.13;;
75071;SDS011;63651;55.728;38.022;2023-07-22T19:51:18;10.73;;;7.57;;
75071;SDS011;63651;55.728;38.022;2023-07-22T19:56:20;14.00;;;9.15;;
75071;SDS011;63651;55.728;38.022;2023-07-22T20:01:21;15.05;;;9.35;;
75071;SDS011;63651;55.728;38.022;2023-07-22T20:06:22;11.80;;;8.88;;
75071;SDS011;63651;55.728;38.022;2023-07-22T20:11:23;13.52;;;8.77;;
75071;SDS011;63651;55.728;38.022;2023-07-22T20:16:24;13.40;;;8.77;;
75071;SDS011;63651;55.728;38.022;2023-07-22T20:21:25;14.32;;;9.60;;
75071;SDS011;63651;55.728;38.022;2023-07-22T20:26:26;10.50;;;8.70;;
75071;SDS011;63651;55.728;38.022;2023-07-22T20:31:28;14.13;;;10.27;;
75071;SDS011;63651;55.728;38.022;2023-07-22T20:36:29;12.77;;;9.50;;
75071;SDS011;63651;55.728;38.022;2023-07-22T20:41:30;12.75;;;8.85;;
75071;SDS011;63651;55.728;38.022;2023-07-22T20:46:31;16.17;;;8.98;;
75071;SDS011;63651;55.728;38.022;2023-07-22T20:51:32;12.45;;;6.68;;
75071;SDS011;63651;55.728;38.022;2023-07-22T20:56:33;15.38;;;10.50;;
75071;SDS011;63651;55.728;38.022;2023-07-22T21:01:34;14.52;;;9.23;;
75071;SDS011;63651;55.728;38.022;2023-07-22T21:06:35;14.73;;;9.45;;
75071;SDS011;63651;55.728;38.022;2023-07-22T21:11:37;13.05;;;9.15;;
75071;SDS011;63651;55.728;38.022;2023-07-22T21:21:39;12.85;;;7.28;;
75071;SDS011;63651;55.728;38.022;2023-07-22T21:26:40;11.30;;;6.97;;
75071;SDS011;63651;55.728;38.022;2023-07-22T21:41:45;10.52;;;6.22;;
75071;SDS011;63651;55.728;38.022;2023-07-22T21:46:47;10.93;;;6.30;;
75071;SDS011;63651;55.728;38.022;2023-07-22T21:51:48;11.18;;;6.97;;
75071;SDS011;63651;55.728;38.022;2023-07-22T21:56:49;20.00;;;14.10;;
75071;SDS011;63651;55.728;38.022;2023-07-22T22:16:54;13.02;;;9.93;;
75071;SDS011;63651;55.728;38.022;2023-07-22T22:21:56;12.35;;;9.55;;
75071;SDS011;63651;55.728;38.022;2023-07-22T22:26:57;13.98;;;9.35;;
75071;SDS011;63651;55.728;38.022;2023-07-22T22:31:58;11.38;;;8.23;;
75071;SDS011;63651;55.728;38.022;2023-07-22T22:36:59;10.87;;;7.90;;
75071;SDS011;63651;55.728;38.022;2023-07-22T23:57:12;7.17;;;5.00;;
